createdAt,value
2019-03-12T00:00:35.364Z,91.31
2019-03-12T00:01:35.159Z,90.79
2019-03-12T00:02:35.133Z,90.79
2019-03-12T00:03:35.132Z,90.89
2019-03-12T00:04:35.143Z,89.95
2019-03-12T00:05:35.109Z,89.95
2019-03-12T00:06:35.153Z,89.12
2019-03-12T00:07:35.110Z,88.66
2019-03-12T00:08:35.083Z,89.18
2019-03-12T00:09:35.061Z,88.45
2019-03-12T00:10:35.125Z,87.99
2019-03-12T00:11:35.042Z,87.89
2019-03-12T00:12:35.068Z,87.79
2019-03-12T00:13:35.047Z,87.89
2019-03-12T00:14:35.014Z,87.79
2019-03-12T00:15:34.994Z,87.89
2019-03-12T00:16:34.994Z,88.06
2019-03-12T00:17:34.982Z,87.79
2019-03-12T00:18:35.007Z,87.89
2019-03-12T00:19:35.026Z,87.75
2019-03-12T00:20:34.951Z,87.79
2019-03-12T00:21:34.960Z,87.58
2019-03-12T00:22:34.920Z,87.48
2019-03-12T00:23:34.908Z,87.48
2019-03-12T00:24:34.947Z,87.65
2019-03-12T00:25:34.911Z,87.79
2019-03-12T00:26:34.874Z,87.85
2019-03-12T00:27:34.870Z,87.79
2019-03-12T00:28:34.859Z,87.65
2019-03-12T00:29:34.848Z,87.68
2019-03-12T00:30:34.879Z,87.58
2019-03-12T00:31:34.844Z,87.68
2019-03-12T00:32:34.816Z,87.79
2019-03-12T00:33:34.808Z,87.89
2019-03-12T00:34:34.796Z,87.93
2019-03-12T00:35:34.785Z,87.73
2019-03-12T00:36:34.815Z,87.73
2019-03-12T00:37:34.777Z,87.93
2019-03-12T00:38:34.750Z,87.73
2019-03-12T00:39:34.743Z,87.83
2019-03-12T00:40:34.739Z,88.04
2019-03-12T00:41:34.722Z,88.24
2019-03-12T00:42:34.767Z,88.35
2019-03-12T00:43:34.701Z,88.73
2019-03-12T00:44:34.765Z,88.35
2019-03-12T00:45:34.686Z,88.14
2019-03-12T00:46:34.681Z,88.24
2019-03-12T00:47:34.660Z,88.24
2019-03-12T00:48:34.747Z,88.35
2019-03-12T00:49:34.642Z,88.24
2019-03-12T00:50:34.631Z,88.24
2019-03-12T00:51:34.666Z,87.93
2019-03-12T00:52:34.619Z,88.14
2019-03-12T00:53:34.625Z,87.89
2019-03-12T00:54:34.633Z,88.04
2019-03-12T00:55:34.600Z,87.73
2019-03-12T00:56:34.564Z,87.62
2019-03-12T00:57:34.551Z,87.62
2019-03-12T00:58:34.553Z,87.73
2019-03-12T00:59:34.531Z,87.83
2019-03-12T01:00:34.545Z,87.62
2019-03-12T01:01:34.503Z,87.27
2019-03-12T01:02:34.545Z,87.30
2019-03-12T01:03:34.494Z,87.41
2019-03-12T01:04:34.470Z,87.30
2019-03-12T01:05:34.469Z,87.10
2019-03-12T01:06:34.505Z,87.10
2019-03-12T01:07:34.473Z,87.73
2019-03-12T01:08:34.428Z,87.52
2019-03-12T01:09:34.435Z,87.73
2019-03-12T01:10:34.414Z,87.83
2019-03-12T01:11:34.396Z,87.87
2019-03-12T01:12:34.455Z,87.83
2019-03-12T01:13:34.384Z,87.62
2019-03-12T01:14:34.382Z,87.62
2019-03-12T01:15:34.371Z,88.04
2019-03-12T01:16:34.346Z,87.83
2019-03-12T01:17:34.360Z,88.04
2019-03-12T01:18:34.358Z,87.41
2019-03-12T01:19:34.327Z,87.93
2019-03-12T01:20:34.301Z,87.37
2019-03-12T01:21:34.317Z,87.37
2019-03-12T01:22:34.293Z,87.30
2019-03-12T01:23:34.290Z,87.35
2019-03-12T01:24:34.352Z,87.41
2019-03-12T01:25:34.250Z,87.52
2019-03-12T01:26:34.239Z,86.99
2019-03-12T01:27:34.243Z,86.99
2019-03-12T01:28:34.258Z,87.10
2019-03-12T01:29:34.211Z,86.89
2019-03-12T01:30:34.254Z,86.68
2019-03-12T01:31:34.189Z,86.75
2019-03-12T01:32:34.176Z,86.68
2019-03-12T01:33:34.166Z,86.85
2019-03-12T01:34:34.168Z,86.58
2019-03-12T01:35:34.178Z,86.96
2019-03-12T01:36:34.228Z,86.99
2019-03-12T01:37:34.126Z,87.16
2019-03-12T01:38:34.121Z,87.10
2019-03-12T01:39:34.117Z,86.96
2019-03-12T01:40:34.103Z,86.89
2019-03-12T01:41:34.129Z,87.27
2019-03-12T01:42:34.125Z,86.43
2019-03-12T01:43:34.064Z,86.54
2019-03-12T01:44:34.076Z,86.33
2019-03-12T01:45:34.065Z,86.12
2019-03-12T01:46:34.027Z,85.60
2019-03-12T01:47:34.031Z,85.60
2019-03-12T01:48:34.069Z,85.29
2019-03-12T01:49:34.010Z,85.25
2019-03-12T01:50:33.998Z,85.46
2019-03-12T01:51:33.984Z,85.25
2019-03-12T01:52:33.971Z,84.94
2019-03-12T01:53:33.961Z,84.42
2019-03-12T01:54:33.989Z,84.21
2019-03-12T01:55:33.943Z,84.73
2019-03-12T01:56:33.922Z,84.52
2019-03-12T01:57:34.026Z,84.52
2019-03-12T01:58:33.906Z,84.73
2019-03-12T01:59:33.890Z,84.87
2019-03-12T02:00:34.024Z,84.98
2019-03-12T02:01:33.870Z,85.08
2019-03-12T02:02:33.884Z,85.08
2019-03-12T02:03:33.849Z,84.77
2019-03-12T02:04:33.842Z,84.52
2019-03-12T02:05:33.831Z,83.73
2019-03-12T02:06:33.874Z,84.04
2019-03-12T02:07:33.805Z,84.31
2019-03-12T02:08:33.838Z,84.04
2019-03-12T02:09:33.791Z,83.83
2019-03-12T02:10:33.815Z,83.58
2019-03-12T02:11:33.760Z,83.83
2019-03-12T02:12:33.790Z,83.94
2019-03-12T02:13:33.789Z,83.83
2019-03-12T02:14:33.767Z,83.58
2019-03-12T02:15:33.723Z,83.58
2019-03-12T02:16:34.993Z,83.20
2019-03-12T02:17:33.767Z,83.17
2019-03-12T02:18:33.841Z,83.94
2019-03-12T02:19:33.674Z,83.17
2019-03-12T02:20:33.668Z,83.62
2019-03-12T02:21:33.702Z,83.27
2019-03-12T02:22:33.687Z,82.75
2019-03-12T02:23:33.647Z,82.34
2019-03-12T02:24:33.648Z,82.75
2019-03-12T02:25:33.629Z,82.13
2019-03-12T02:26:33.609Z,82.34
2019-03-12T02:27:33.603Z,82.23
2019-03-12T02:28:33.595Z,82.44
2019-03-12T02:29:33.573Z,82.75
2019-03-12T02:30:33.640Z,82.75
2019-03-12T02:31:33.559Z,82.48
2019-03-12T02:32:33.552Z,82.68
2019-03-12T02:33:33.526Z,82.13
2019-03-12T02:34:33.511Z,82.13
2019-03-12T02:35:33.508Z,82.06
2019-03-12T02:36:33.541Z,82.75
2019-03-12T02:37:33.504Z,82.58
2019-03-12T02:38:33.474Z,82.17
2019-03-12T02:39:33.469Z,82.58
2019-03-12T02:40:33.454Z,82.48
2019-03-12T02:41:33.438Z,82.58
2019-03-12T02:42:33.472Z,82.72
2019-03-12T02:43:33.432Z,82.68
2019-03-12T02:44:33.417Z,82.48
2019-03-12T02:45:33.407Z,82.68
2019-03-12T02:46:33.384Z,82.79
2019-03-12T02:47:33.392Z,82.48
2019-03-12T02:48:33.585Z,83.17
2019-03-12T02:49:33.376Z,82.58
2019-03-12T02:50:33.372Z,82.79
2019-03-12T02:51:33.332Z,82.68
2019-03-12T02:52:33.329Z,83.20
2019-03-12T02:53:33.320Z,82.89
2019-03-12T02:54:33.344Z,83.20
2019-03-12T02:55:33.295Z,82.89
2019-03-12T02:56:33.306Z,82.79
2019-03-12T02:57:33.269Z,83.62
2019-03-12T02:58:33.261Z,83.42
2019-03-12T02:59:33.261Z,83.94
2019-03-12T03:00:33.391Z,84.25
2019-03-12T03:01:33.232Z,83.83
2019-03-12T03:02:33.237Z,83.83
2019-03-12T03:03:33.212Z,84.04
2019-03-12T03:04:33.198Z,83.83
2019-03-12T03:05:33.190Z,84.04
2019-03-12T03:06:33.227Z,84.35
2019-03-12T03:07:33.172Z,84.45
2019-03-12T03:08:33.177Z,84.04
2019-03-12T03:09:33.143Z,84.35
2019-03-12T03:10:33.148Z,84.31
2019-03-12T03:11:33.124Z,84.77
2019-03-12T03:12:33.153Z,84.73
2019-03-12T03:13:33.107Z,84.83
2019-03-12T03:14:33.102Z,84.52
2019-03-12T03:15:33.081Z,85.04
2019-03-12T03:16:33.074Z,84.83
2019-03-12T03:17:33.066Z,84.94
2019-03-12T03:18:33.094Z,84.69
2019-03-12T03:19:33.058Z,84.90
2019-03-12T03:20:33.058Z,84.69
2019-03-12T03:21:33.043Z,84.80
2019-03-12T03:22:33.047Z,84.59
2019-03-12T03:23:33.019Z,84.69
2019-03-12T03:24:33.019Z,84.38
2019-03-12T03:25:32.975Z,84.06
2019-03-12T03:26:33.007Z,83.61
2019-03-12T03:27:32.948Z,83.51
2019-03-12T03:28:32.968Z,83.09
2019-03-12T03:29:32.932Z,83.20
2019-03-12T03:30:32.950Z,83.09
2019-03-12T03:31:32.915Z,82.99
2019-03-12T03:32:32.899Z,82.78
2019-03-12T03:33:32.902Z,82.68
2019-03-12T03:34:32.925Z,82.68
2019-03-12T03:35:32.865Z,82.68
2019-03-12T03:36:32.900Z,82.57
2019-03-12T03:37:32.838Z,82.22
2019-03-12T03:38:32.826Z,82.22
2019-03-12T03:39:32.829Z,82.46
2019-03-12T03:40:32.829Z,81.49
2019-03-12T03:41:34.761Z,82.43
2019-03-12T03:42:32.969Z,81.67
2019-03-12T03:43:32.820Z,81.25
2019-03-12T03:44:32.770Z,81.04
2019-03-12T03:45:32.765Z,81.04
2019-03-12T03:46:32.750Z,81.04
2019-03-12T03:47:32.761Z,80.94
2019-03-12T03:48:32.775Z,81.25
2019-03-12T03:49:32.739Z,81.15
2019-03-12T03:50:32.748Z,81.15
2019-03-12T03:51:32.701Z,80.94
2019-03-12T03:52:32.690Z,80.73
2019-03-12T03:53:32.679Z,80.73
2019-03-12T03:54:32.725Z,80.83
2019-03-12T03:55:32.662Z,81.15
2019-03-12T03:56:32.675Z,80.94
2019-03-12T03:57:32.630Z,81.15
2019-03-12T03:58:32.637Z,81.56
2019-03-12T03:59:32.610Z,81.67
2019-03-12T04:00:32.791Z,81.87
2019-03-12T04:01:32.591Z,81.67
2019-03-12T04:02:32.610Z,81.42
2019-03-12T04:03:32.623Z,81.21
2019-03-12T04:04:32.554Z,81.21
2019-03-12T04:05:32.587Z,81.73
2019-03-12T04:06:34.345Z,81.52
2019-03-12T04:07:32.535Z,81.84
2019-03-12T04:08:32.518Z,81.52
2019-03-12T04:09:32.504Z,81.42
2019-03-12T04:10:32.522Z,81.94
2019-03-12T04:11:32.519Z,81.63
2019-03-12T04:12:32.509Z,81.42
2019-03-12T04:13:32.458Z,81.11
2019-03-12T04:14:32.445Z,81.52
2019-03-12T04:15:32.461Z,81.63
2019-03-12T04:16:32.428Z,81.70
2019-03-12T04:17:32.434Z,82.32
2019-03-12T04:18:32.467Z,82.25
2019-03-12T04:19:32.397Z,82.25
2019-03-12T04:20:32.385Z,82.46
2019-03-12T04:21:32.407Z,82.35
2019-03-12T04:22:32.367Z,83.39
2019-03-12T04:23:32.355Z,83.60
2019-03-12T04:24:32.378Z,83.74
2019-03-12T04:25:32.331Z,83.64
2019-03-12T04:26:32.316Z,83.84
2019-03-12T04:27:32.320Z,84.05
2019-03-12T04:28:32.295Z,84.47
2019-03-12T04:29:32.281Z,84.37
2019-03-12T04:30:32.332Z,84.58
2019-03-12T04:31:32.280Z,84.68
2019-03-12T04:32:32.249Z,85.10
2019-03-12T04:33:39.798Z,84.68
2019-03-12T04:34:39.780Z,84.89
2019-03-12T04:35:40.897Z,85.41
2019-03-12T04:36:39.772Z,85.65
2019-03-12T04:37:41.398Z,85.86
2019-03-12T04:38:40.755Z,85.24
2019-03-12T04:39:39.734Z,85.96
2019-03-12T04:40:32.164Z,86.07
2019-03-12T04:41:32.452Z,85.96
2019-03-12T04:42:32.166Z,86.03
2019-03-12T04:43:32.147Z,85.96
2019-03-12T04:44:32.135Z,86.07
2019-03-12T04:45:32.213Z,86.38
2019-03-12T04:46:32.208Z,86.44
2019-03-12T04:47:32.153Z,86.49
2019-03-12T04:48:32.137Z,86.13
2019-03-12T04:49:32.088Z,86.13
2019-03-12T04:50:32.078Z,86.03
2019-03-12T04:51:32.064Z,86.03
2019-03-12T04:52:32.074Z,86.03
2019-03-12T04:53:32.080Z,85.93
2019-03-12T04:54:32.027Z,86.03
2019-03-12T04:55:32.051Z,86.03
2019-03-12T04:56:32.030Z,86.13
2019-03-12T04:57:31.988Z,86.13
2019-03-12T04:58:32.004Z,86.44
2019-03-12T04:59:32.002Z,86.49
2019-03-12T05:00:31.991Z,86.38
2019-03-12T05:01:31.959Z,86.49
2019-03-12T05:02:31.950Z,86.69
2019-03-12T05:03:31.926Z,87.21
2019-03-12T05:04:31.947Z,86.90
2019-03-12T05:05:31.955Z,86.38
2019-03-12T05:06:31.893Z,86.59
2019-03-12T05:07:31.972Z,86.49
2019-03-12T05:08:31.890Z,86.44
2019-03-12T05:09:31.876Z,86.59
2019-03-12T05:10:31.888Z,86.13
2019-03-12T05:11:31.973Z,85.93
2019-03-12T05:12:31.838Z,86.13
2019-03-12T05:13:31.831Z,86.03
2019-03-12T05:14:31.810Z,85.72
2019-03-12T05:15:31.793Z,85.51
2019-03-12T05:16:31.802Z,85.72
2019-03-12T05:17:31.821Z,85.30
2019-03-12T05:18:31.759Z,85.57
2019-03-12T05:19:31.746Z,85.16
2019-03-12T05:20:31.735Z,85.57
2019-03-12T05:21:31.768Z,85.05
2019-03-12T05:22:31.720Z,85.47
2019-03-12T05:23:31.765Z,85.05
2019-03-12T05:24:31.723Z,85.16
2019-03-12T05:25:31.683Z,85.26
2019-03-12T05:26:31.673Z,85.36
2019-03-12T05:27:31.698Z,85.16
2019-03-12T05:28:31.658Z,85.26
2019-03-12T05:29:31.704Z,85.16
2019-03-12T05:30:31.633Z,84.53
2019-03-12T05:31:31.625Z,85.26
2019-03-12T05:32:31.615Z,85.16
2019-03-12T05:33:31.625Z,85.47
2019-03-12T05:34:31.590Z,85.05
2019-03-12T05:35:31.630Z,85.26
2019-03-12T05:36:31.567Z,85.05
2019-03-12T05:37:31.558Z,84.84
2019-03-12T05:38:31.548Z,84.84
2019-03-12T05:39:31.546Z,84.74
2019-03-12T05:40:31.523Z,85.10
2019-03-12T05:41:31.555Z,85.16
2019-03-12T05:42:31.510Z,85.05
2019-03-12T05:43:31.493Z,85.36
2019-03-12T05:44:31.516Z,84.95
2019-03-12T05:45:31.471Z,84.74
2019-03-12T05:46:31.490Z,85.26
2019-03-12T05:47:31.494Z,85.57
2019-03-12T05:48:31.447Z,85.05
2019-03-12T05:49:31.427Z,84.84
2019-03-12T05:50:31.432Z,85.02
2019-03-12T05:51:31.447Z,84.81
2019-03-12T05:52:31.405Z,84.81
2019-03-12T05:53:31.449Z,84.91
2019-03-12T05:54:31.386Z,85.12
2019-03-12T05:55:31.361Z,85.16
2019-03-12T05:56:31.353Z,84.91
2019-03-12T05:57:31.354Z,85.16
2019-03-12T05:58:31.333Z,84.91
2019-03-12T05:59:31.374Z,85.16
2019-03-12T06:00:31.321Z,85.02
2019-03-12T06:01:31.298Z,85.22
2019-03-12T06:02:31.288Z,85.36
2019-03-12T06:03:31.376Z,85.16
2019-03-12T06:04:31.271Z,85.26
2019-03-12T06:05:31.286Z,85.22
2019-03-12T06:06:31.260Z,85.53
2019-03-12T06:07:31.236Z,85.53
2019-03-12T06:08:31.230Z,85.26
2019-03-12T06:09:31.212Z,85.16
2019-03-12T06:10:31.201Z,85.53
2019-03-12T06:11:31.240Z,85.78
2019-03-12T06:12:31.179Z,85.12
2019-03-12T06:13:31.182Z,84.91
2019-03-12T06:14:31.156Z,84.39
2019-03-12T06:15:31.146Z,84.70
2019-03-12T06:16:31.134Z,84.29
2019-03-12T06:17:31.170Z,84.46
2019-03-12T06:18:31.112Z,83.84
2019-03-12T06:19:31.124Z,84.36
2019-03-12T06:20:31.093Z,84.56
2019-03-12T06:21:31.083Z,84.36
2019-03-12T06:22:31.069Z,83.73
2019-03-12T06:23:31.101Z,83.84
2019-03-12T06:24:31.050Z,84.05
2019-03-12T06:25:31.055Z,84.05
2019-03-12T06:26:31.026Z,84.36
2019-03-12T06:27:31.017Z,84.25
2019-03-12T06:28:31.343Z,83.84
2019-03-12T06:29:31.043Z,84.25
2019-03-12T06:30:30.983Z,83.84
2019-03-12T06:31:30.990Z,83.84
2019-03-12T06:32:30.960Z,83.94
2019-03-12T06:33:30.952Z,83.73
2019-03-12T06:34:30.945Z,84.00
2019-03-12T06:35:30.965Z,83.84
2019-03-12T06:36:30.917Z,83.80
2019-03-12T06:37:30.940Z,83.69
2019-03-12T06:38:30.895Z,83.69
2019-03-12T06:39:30.884Z,83.28
2019-03-12T06:40:30.873Z,83.59
2019-03-12T06:41:30.902Z,82.34
2019-03-12T06:42:30.851Z,82.14
2019-03-12T06:43:30.861Z,82.24
2019-03-12T06:44:30.828Z,82.24
2019-03-12T06:45:30.820Z,81.68
2019-03-12T06:46:30.807Z,80.96
2019-03-12T06:47:30.829Z,80.51
2019-03-12T06:48:30.792Z,80.65
2019-03-12T06:49:30.790Z,80.30
2019-03-12T06:50:30.778Z,79.99
2019-03-12T06:51:30.760Z,80.09
2019-03-12T06:52:30.745Z,80.30
2019-03-12T06:53:30.783Z,80.19
2019-03-12T06:54:30.733Z,80.40
2019-03-12T06:55:30.714Z,80.30
2019-03-12T06:56:30.705Z,79.88
2019-03-12T06:57:30.721Z,79.99
2019-03-12T06:58:30.699Z,80.19
2019-03-12T06:59:30.709Z,79.68
2019-03-12T07:00:30.664Z,80.09
2019-03-12T07:01:30.651Z,80.19
2019-03-12T07:02:30.652Z,80.40
2019-03-12T07:03:30.677Z,80.30
2019-03-12T07:04:30.614Z,80.19
2019-03-12T07:05:30.664Z,80.30
2019-03-12T07:06:30.653Z,80.30
2019-03-12T07:07:30.611Z,80.30
2019-03-12T07:08:30.592Z,80.30
2019-03-12T07:09:30.563Z,79.85
2019-03-12T07:10:30.554Z,79.23
2019-03-12T07:11:30.588Z,78.92
2019-03-12T07:12:30.536Z,79.64
2019-03-12T07:13:30.520Z,79.33
2019-03-12T07:14:30.522Z,79.02
2019-03-12T07:15:30.495Z,79.02
2019-03-12T07:16:30.488Z,78.36
2019-03-12T07:17:30.506Z,78.26
2019-03-12T07:18:30.466Z,79.19
2019-03-12T07:19:30.464Z,78.47
2019-03-12T07:20:30.487Z,77.74
2019-03-12T07:21:30.474Z,78.16
2019-03-12T07:22:30.417Z,78.36
2019-03-12T07:23:30.476Z,78.26
2019-03-12T07:24:30.402Z,78.26
2019-03-12T07:25:30.388Z,77.84
2019-03-12T07:26:30.376Z,78.02
2019-03-12T07:27:30.417Z,77.43
2019-03-12T07:28:30.356Z,77.74
2019-03-12T07:29:30.372Z,77.39
2019-03-12T07:30:30.335Z,76.98
2019-03-12T07:31:30.323Z,77.60
2019-03-12T07:32:30.314Z,76.98
2019-03-12T07:33:30.337Z,76.05
2019-03-12T07:34:36.769Z,75.74
2019-03-12T07:35:31.429Z,75.84
2019-03-12T07:36:30.282Z,75.63
2019-03-12T07:37:30.266Z,75.70
2019-03-12T07:38:30.247Z,75.81
2019-03-12T07:39:30.232Z,75.40
2019-03-12T07:40:30.242Z,75.19
2019-03-12T07:41:32.722Z,75.84
2019-03-12T07:42:30.975Z,76.01
2019-03-12T07:43:30.433Z,76.15
2019-03-12T07:44:30.345Z,75.81
2019-03-12T07:45:30.191Z,75.60
2019-03-12T07:46:30.158Z,76.01
2019-03-12T07:47:35.792Z,76.43
2019-03-12T07:48:31.136Z,75.81
2019-03-12T07:49:30.124Z,75.81
2019-03-12T07:50:30.132Z,75.50
2019-03-12T07:51:30.106Z,75.50
2019-03-12T07:52:30.097Z,75.50
2019-03-12T07:53:30.121Z,75.19
2019-03-12T07:54:30.095Z,75.57
2019-03-12T07:55:30.097Z,75.15
2019-03-12T07:56:30.056Z,75.26
2019-03-12T07:57:30.040Z,75.46
2019-03-12T07:58:35.744Z,76.39
2019-03-12T07:59:31.055Z,75.67
2019-03-12T08:00:30.029Z,75.46
2019-03-12T08:01:30.003Z,75.60
2019-03-12T08:02:29.990Z,76.29
2019-03-12T08:03:29.974Z,75.88
2019-03-12T08:04:29.961Z,75.15
2019-03-12T08:05:29.986Z,75.36
2019-03-12T08:06:29.952Z,75.15
2019-03-12T08:07:29.933Z,74.74
2019-03-12T08:08:29.922Z,75.67
2019-03-12T08:09:29.942Z,75.15
2019-03-12T08:10:29.903Z,74.95
2019-03-12T08:11:29.951Z,75.12
2019-03-12T08:12:29.875Z,75.01
2019-03-12T08:13:29.864Z,74.29
2019-03-12T08:14:29.900Z,74.29
2019-03-12T08:15:29.863Z,73.67
2019-03-12T08:16:29.846Z,73.36
2019-03-12T08:17:29.874Z,73.16
2019-03-12T08:18:29.814Z,73.33
2019-03-12T08:19:29.802Z,73.77
2019-03-12T08:20:29.800Z,73.22
2019-03-12T08:21:29.785Z,73.22
2019-03-12T08:22:29.774Z,73.43
2019-03-12T08:23:29.825Z,72.81
2019-03-12T08:24:29.748Z,71.98
2019-03-12T08:25:29.734Z,72.61
2019-03-12T08:26:29.750Z,72.19
2019-03-12T08:27:29.717Z,71.54
2019-03-12T08:28:29.702Z,72.19
2019-03-12T08:29:29.743Z,71.78
2019-03-12T08:30:29.681Z,71.78
2019-03-12T08:31:29.674Z,71.47
2019-03-12T08:32:29.658Z,71.78
2019-03-12T08:33:29.700Z,71.98
2019-03-12T08:34:29.637Z,71.23
2019-03-12T08:35:29.666Z,70.72
2019-03-12T08:36:29.646Z,71.02
2019-03-12T08:37:29.605Z,71.02
2019-03-12T08:38:29.591Z,71.23
2019-03-12T08:39:29.619Z,71.71
2019-03-12T08:40:29.576Z,71.41
2019-03-12T08:41:29.597Z,71.30
2019-03-12T08:42:29.548Z,70.99
2019-03-12T08:43:29.539Z,70.68
2019-03-12T08:44:29.541Z,69.75
2019-03-12T08:45:29.558Z,70.47
2019-03-12T08:46:29.514Z,70.57
2019-03-12T08:47:29.530Z,70.65
2019-03-12T08:48:29.488Z,71.06
2019-03-12T08:49:29.479Z,70.54
2019-03-12T08:50:29.460Z,70.13
2019-03-12T08:51:29.489Z,70.65
2019-03-12T08:52:29.443Z,69.93
2019-03-12T08:53:29.483Z,70.65
2019-03-12T08:54:29.421Z,69.62
2019-03-12T08:55:29.416Z,69.62
2019-03-12T08:56:32.539Z,69.20
2019-03-12T08:57:29.402Z,70.23
2019-03-12T08:58:29.382Z,69.41
2019-03-12T08:59:29.413Z,69.51
2019-03-12T09:00:29.352Z,69.38
2019-03-12T09:01:29.346Z,68.86
2019-03-12T09:02:29.344Z,68.14
2019-03-12T09:03:29.342Z,68.14
2019-03-12T09:04:29.320Z,68.14
2019-03-12T09:05:29.351Z,68.86
2019-03-12T09:06:29.298Z,68.14
2019-03-12T09:07:29.275Z,68.14
2019-03-12T09:08:29.265Z,68.52
2019-03-12T09:09:29.278Z,68.01
2019-03-12T09:10:29.243Z,68.73
2019-03-12T09:11:29.292Z,67.08
2019-03-12T09:12:29.225Z,66.94
2019-03-12T09:13:29.215Z,66.94
2019-03-12T09:14:29.211Z,65.81
2019-03-12T09:15:29.214Z,66.12
2019-03-12T09:16:29.182Z,66.02
2019-03-12T09:17:29.209Z,65.47
2019-03-12T09:18:29.167Z,65.16
2019-03-12T09:19:29.226Z,65.13
2019-03-12T09:20:29.136Z,65.06
2019-03-12T09:21:29.144Z,63.82
2019-03-12T09:22:29.113Z,63.62
2019-03-12T09:23:29.155Z,64.72
2019-03-12T09:24:29.096Z,64.62
2019-03-12T09:25:29.079Z,63.90
2019-03-12T09:26:29.067Z,63.69
2019-03-12T09:27:29.058Z,63.76
2019-03-12T09:28:29.082Z,64.59
2019-03-12T09:29:29.075Z,63.46
2019-03-12T09:30:29.023Z,62.74
2019-03-12T09:31:29.013Z,63.15
2019-03-12T09:32:29.000Z,62.63
2019-03-12T09:33:28.990Z,63.35
2019-03-12T09:34:29.014Z,63.25
2019-03-12T09:35:29.017Z,62.30
2019-03-12T09:36:28.956Z,63.25
2019-03-12T09:37:28.946Z,63.32
2019-03-12T09:38:28.935Z,63.32
2019-03-12T09:39:29.047Z,62.30
2019-03-12T09:40:28.917Z,62.19
2019-03-12T09:41:28.971Z,61.88
2019-03-12T09:42:28.896Z,61.99
2019-03-12T09:43:28.882Z,63.35
2019-03-12T09:44:28.869Z,63.15
2019-03-12T09:45:28.857Z,63.43
2019-03-12T09:46:28.850Z,60.40
2019-03-12T09:47:28.902Z,60.91
2019-03-12T09:48:28.827Z,62.25
2019-03-12T09:49:28.816Z,63.69
2019-03-12T09:50:28.816Z,62.25
2019-03-12T09:51:28.795Z,63.69
2019-03-12T09:52:28.786Z,62.77
2019-03-12T09:53:28.816Z,63.59
2019-03-12T09:54:28.759Z,62.87
2019-03-12T09:55:28.774Z,63.59
2019-03-12T09:56:28.739Z,62.70
2019-03-12T09:57:28.731Z,63.62
2019-03-12T09:58:28.720Z,64.24
2019-03-12T09:59:28.785Z,63.82
2019-03-12T10:00:28.697Z,63.72
2019-03-12T10:01:28.702Z,64.14
2019-03-12T10:02:28.672Z,63.21
2019-03-12T10:03:28.662Z,64.96
2019-03-12T10:04:28.862Z,63.62
2019-03-12T10:05:28.712Z,63.10
2019-03-12T10:06:28.631Z,63.72
2019-03-12T10:07:28.618Z,63.21
2019-03-12T10:08:28.609Z,62.72
2019-03-12T10:09:28.608Z,63.72
2019-03-12T10:10:28.586Z,63.82
2019-03-12T10:11:28.633Z,63.75
2019-03-12T10:12:28.568Z,63.31
2019-03-12T10:13:28.555Z,63.13
2019-03-12T10:14:28.567Z,62.21
2019-03-12T10:15:28.537Z,63.03
2019-03-12T10:16:28.523Z,62.52
2019-03-12T10:17:28.600Z,62.52
2019-03-12T10:18:28.501Z,62.41
2019-03-12T10:19:28.491Z,63.96
2019-03-12T10:20:28.487Z,63.75
2019-03-12T10:21:28.469Z,63.72
2019-03-12T10:22:28.454Z,63.82
2019-03-12T10:23:28.523Z,63.52
2019-03-12T10:24:28.869Z,63.62
2019-03-12T10:25:28.428Z,63.10
2019-03-12T10:26:28.425Z,62.46
2019-03-12T10:27:28.435Z,62.25
2019-03-12T10:28:28.389Z,61.63
2019-03-12T10:29:28.448Z,61.12
2019-03-12T10:30:28.374Z,60.89
2019-03-12T10:31:28.360Z,60.91
2019-03-12T10:32:28.351Z,61.02
2019-03-12T10:33:28.338Z,61.61
2019-03-12T10:34:29.886Z,61.40
2019-03-12T10:35:28.374Z,60.58
2019-03-12T10:36:30.927Z,60.06
2019-03-12T10:37:28.295Z,60.37
2019-03-12T10:38:28.281Z,60.17
2019-03-12T10:39:28.276Z,60.03
2019-03-12T10:40:28.260Z,60.27
2019-03-12T10:41:28.316Z,60.14
2019-03-12T10:42:28.272Z,60.14
2019-03-12T10:43:28.225Z,60.24
2019-03-12T10:44:28.215Z,59.70
2019-03-12T10:45:28.220Z,59.59
2019-03-12T10:46:28.197Z,60.31
2019-03-12T10:47:28.236Z,60.19
2019-03-12T10:48:28.184Z,58.95
2019-03-12T10:49:37.424Z,60.39
2019-03-12T10:50:29.164Z,60.36
2019-03-12T10:51:28.146Z,60.05
2019-03-12T10:52:28.135Z,59.75
2019-03-12T10:53:28.184Z,59.72
2019-03-12T10:54:28.122Z,59.52
2019-03-12T10:55:28.103Z,57.56
2019-03-12T10:56:28.085Z,57.56
2019-03-12T10:57:28.079Z,56.36
2019-03-12T10:58:28.064Z,57.56
2019-03-12T10:59:28.105Z,58.07
2019-03-12T11:00:28.058Z,58.67
2019-03-12T11:01:28.039Z,57.33
2019-03-12T11:02:28.020Z,57.13
2019-03-12T11:03:28.065Z,57.13
2019-03-12T11:04:27.997Z,56.82
2019-03-12T11:05:28.035Z,57.05
2019-03-12T11:06:27.996Z,57.56
2019-03-12T11:07:27.972Z,58.77
2019-03-12T11:08:27.951Z,57.46
2019-03-12T11:09:27.939Z,57.64
2019-03-12T11:10:27.931Z,57.56
2019-03-12T11:11:27.986Z,57.15
2019-03-12T11:12:27.927Z,57.56
2019-03-12T11:13:27.899Z,58.80
2019-03-12T11:14:27.888Z,57.26
2019-03-12T11:15:27.878Z,56.64
2019-03-12T11:16:27.861Z,56.98
2019-03-12T11:17:27.914Z,56.56
2019-03-12T11:18:27.860Z,57.59
2019-03-12T11:19:27.833Z,57.28
2019-03-12T11:20:27.817Z,56.74
2019-03-12T11:21:27.814Z,57.77
2019-03-12T11:22:27.795Z,56.85
2019-03-12T11:23:27.843Z,56.26
2019-03-12T11:24:27.799Z,56.74
2019-03-12T11:25:28.309Z,57.98
2019-03-12T11:26:27.750Z,57.77
2019-03-12T11:27:27.741Z,56.64
2019-03-12T11:28:27.750Z,57.33
2019-03-12T11:29:27.788Z,57.51
2019-03-12T11:30:27.715Z,57.00
2019-03-12T11:31:27.698Z,56.18
2019-03-12T11:32:27.681Z,56.79
2019-03-12T11:33:27.670Z,55.66
2019-03-12T11:34:27.658Z,56.38
2019-03-12T11:35:38.339Z,56.28
2019-03-12T11:36:28.656Z,56.90
2019-03-12T11:37:27.636Z,55.36
2019-03-12T11:38:27.617Z,54.95
2019-03-12T11:39:27.612Z,54.61
2019-03-12T11:40:32.012Z,54.85
2019-03-12T11:41:28.633Z,55.46
2019-03-12T11:42:27.575Z,56.23
2019-03-12T11:43:27.609Z,55.92
2019-03-12T11:44:27.554Z,55.38
2019-03-12T11:45:36.268Z,55.30
2019-03-12T11:46:28.533Z,54.90
2019-03-12T11:47:27.605Z,55.00
2019-03-12T11:48:27.515Z,55.30
2019-03-12T11:49:27.518Z,55.21
2019-03-12T11:50:27.529Z,55.21
2019-03-12T11:51:27.471Z,55.51
2019-03-12T11:52:27.465Z,55.08
2019-03-12T11:53:27.511Z,55.49
2019-03-12T11:54:27.438Z,53.21
2019-03-12T11:55:27.456Z,53.92
2019-03-12T11:56:27.452Z,54.13
2019-03-12T11:57:27.421Z,53.92
2019-03-12T11:58:27.423Z,54.05
2019-03-12T11:59:27.451Z,54.57
2019-03-12T12:00:27.814Z,53.16
2019-03-12T12:01:27.362Z,54.46
2019-03-12T12:02:27.350Z,53.67
2019-03-12T12:03:27.362Z,53.36
2019-03-12T12:04:27.333Z,54.49
2019-03-12T12:05:27.367Z,54.08
2019-03-12T12:06:27.314Z,53.56
2019-03-12T12:07:27.298Z,54.82
2019-03-12T12:08:27.300Z,53.59
2019-03-12T12:09:27.576Z,54.82
2019-03-12T12:10:27.304Z,54.31
2019-03-12T12:11:27.284Z,55.82
2019-03-12T12:12:27.247Z,55.00
2019-03-12T12:13:27.232Z,55.54
2019-03-12T12:14:27.219Z,54.61
2019-03-12T12:15:27.215Z,55.33
2019-03-12T12:16:27.198Z,55.54
2019-03-12T12:17:27.351Z,56.05
2019-03-12T12:18:27.177Z,54.41
2019-03-12T12:19:27.166Z,54.31
2019-03-12T12:20:30.102Z,54.64
2019-03-12T12:21:27.144Z,55.26
2019-03-12T12:22:27.132Z,54.46
2019-03-12T12:23:27.181Z,56.59
2019-03-12T12:24:27.110Z,56.69
2019-03-12T12:25:27.099Z,56.77
2019-03-12T12:26:27.104Z,56.26
2019-03-12T12:27:27.076Z,56.26
2019-03-12T12:28:27.067Z,56.35
2019-03-12T12:29:27.087Z,56.46
2019-03-12T12:30:27.043Z,56.46
2019-03-12T12:31:27.032Z,56.26
2019-03-12T12:32:27.029Z,56.33
2019-03-12T12:33:27.013Z,55.82
2019-03-12T12:34:26.999Z,53.56
2019-03-12T12:35:27.044Z,53.46
2019-03-12T12:36:26.982Z,54.10
2019-03-12T12:37:26.973Z,54.72
2019-03-12T12:38:26.979Z,53.28
2019-03-12T12:39:26.944Z,54.44
2019-03-12T12:40:26.933Z,54.85
2019-03-12T12:41:26.969Z,54.85
2019-03-12T12:42:26.912Z,55.56
2019-03-12T12:43:26.923Z,55.66
2019-03-12T12:44:26.969Z,56.28
2019-03-12T12:45:26.884Z,56.79
2019-03-12T12:46:26.866Z,56.69
2019-03-12T12:47:26.880Z,55.98
2019-03-12T12:48:26.844Z,56.90
2019-03-12T12:49:26.832Z,56.59
2019-03-12T12:50:26.820Z,55.36
2019-03-12T12:51:26.809Z,55.26
2019-03-12T12:52:26.802Z,54.97